Firestone, Colorado
Current Conditions -  °F | °C
As of 5:15 PM on Saturday 25 Oct 2014 (Local Time) from KEIK Reporting Station
Clear Clear  
Wind Chill: 77°   Ceiling: Unl
Heat Index: 77°   Visibility: 10mi
Dew Point: 20°   Wind: 5mph
Humidity: 12%   Direction: 100°E
Pressure: 30.05"   Gusts: NA
Location:  40.11°N, 104.94°W
Report Text: KEIK 252315Z AUTO 10004KT 10SM CLR 25/M07 A3005 RMK AO2 T02501068
Loading
Personal Weather Stations






























Interactive Weather Map
Tropical Storm Tracking
New forecast layout! Learn more

10-Day Weather Forecast

Advertisements
Track Severe Weather on mobile